CW2444 Weather Reports


Display with metric or nautical units.
time (UTC)temp
F
wind
direction
speed
MPH
gust
MPH
rain 1hr
in
rain 24hr
in
rain mn
in
humidity
%
barometer
mb
20180821081435 61 354 0.0 0.0 0.00 0.00 0.00 66 1017.0
20180821080438 63 117 0.0 0.0 0.00 0.00 0.00 64 1016.9
20180821075427 62 117 0.0 0.0 0.00 0.00 0.00 67 1016.7
20180821074445 61 117 0.0 0.0 0.00 0.00 0.00 68 1016.6
20180821073445 61 117 0.0 0.0 0.00 0.00 0.00 64 1016.6
20180821072439 63 117 0.0 0.0 0.00 0.00 0.00 61 1016.5
20180821071438 66 117 0.0 0.0 0.00 0.00 0.00 58 1016.3
20180821070437 67 117 0.0 0.0 0.00 0.00 0.00 57 1016.4
20180821065426 67 117 0.0 0.0 0.00 0.00 0.00 57 1016.3
20180821064428 65 121 0.0 0.0 0.00 0.00 0.00 61 1016.3
20180821063448 66 121 0.0 0.0 0.00 0.00 0.00 58 1016.3
20180821062437 67 121 0.0 0.0 0.00 0.00 0.00 58 1016.3
20180821061435 65 121 0.0 0.0 0.00 0.00 0.00 62 1016.2
20180821060437 64 121 0.0 0.0 0.00 0.00 0.00 63 1016.2
20180821055427 68 65 0.0 0.0 0.00 0.00 0.00 55 1016.1
20180821054446 68 65 0.0 0.0 0.00 0.00 0.00 55 1016.0
20180821053444 68 65 0.0 0.0 0.00 0.00 0.00 58 1015.9
20180821052431 65 65 0.0 0.0 0.00 0.00 0.00 62 1015.8
20180821051435 65 65 0.0 0.0 0.00 0.00 0.00 62 1015.8
20180821050455 66 65 0.0 0.0 0.00 0.00 0.00 57 1015.7
20180821045441 66 65 0.0 0.0 0.00 0.00 0.00 56 1015.7
20180821044438 68 65 0.0 0.0 0.00 0.00 0.00 57 1015.5
20180821043438 68 65 0.0 0.0 0.00 0.00 0.00 57 1015.4
20180821042429 69 65 0.0 0.0 0.00 0.00 0.00 57 1015.3
20180821041444 69 65 0.0 0.0 0.00 0.00 0.00 56 1015.2
20180821040444 69 80 0.0 0.0 0.00 0.00 0.00 56 1015.1
20180821035429 70 52 0.0 0.0 0.00 0.00 0.00 51 1014.9
20180821034445 72 51 0.0 0.0 0.00 0.00 0.00 48 1014.7
20180821033449 74 59 0.0 0.0 0.00 0.00 0.00 43 1014.4
20180821032436 74 143 0.0 0.0 0.00 0.00 0.00 43 1014.2
20180821031433 73 143 0.0 0.0 0.00 0.00 0.00 44 1014.1
20180821030452 74 143 0.0 0.0 0.00 0.00 0.00 44 1013.9
20180821025439 75 143 0.0 0.0 0.00 0.00 0.00 43 1013.8
20180821024441 75 143 0.0 0.0 0.00 0.00 0.00 42 1013.9
20180821023440 76 143 0.0 0.0 0.00 0.00 0.00 43 1013.8
20180821022429 77 143 0.0 0.0 0.00 0.00 0.00 42 1013.7
20180821021428 78 143 0.0 0.0 0.00 0.00 0.00 40 1013.7
20180821020452 80 143 0.0 0.0 0.00 0.00 0.00 37 1013.7
20180821015439 81 143 0.0 0.0 0.00 0.00 0.00 36 1013.7
20180821014435 82 107 0.0 0.0 0.00 0.00 0.00 33 1013.7
20180821013454 83 107 0.0 0.0 0.00 0.00 0.00 33 1013.6
20180821012442 83 107 0.0 0.0 0.00 0.00 0.00 32 1013.7
20180821011442 84 107 0.0 0.0 0.00 0.00 0.00 32 1013.6
20180821010441 85 107 0.0 0.0 0.00 0.00 0.00 29 1013.6
20180821005429 85 107 0.0 0.0 0.00 0.00 0.00 28 1013.7
20180821004428 85 107 0.0 0.0 0.00 0.00 0.00 28 1013.7
20180821003448 86 107 0.0 0.0 0.00 0.00 0.00 28 1013.6
20180821002440 86 107 0.0 0.0 0.00 0.00 0.00 28 1013.6
20180821001437 86 107 0.0 0.0 0.00 0.00 0.00 28 1013.6
20180821000437 86 107 0.0 0.0 0.00 0.00 0.00 29 1013.6
20180820235427 86 107 0.0 0.0 0.00 0.00 0.00 29 1013.7
20180820234430 86 107 0.0 0.0 0.00 0.00 0.00 28 1013.6
20180820233448 86 114 0.0 0.0 0.00 0.00 0.00 29 1013.6
20180820232438 85 82 1.0 0.0 0.00 0.00 0.00 30 1013.7
20180820231433 84 56 0.0 0.0 0.00 0.00 0.00 29 1013.7
20180820230454 84 19 0.0 0.0 0.00 0.00 0.00 29 1013.7
20180820225445 84 19 0.0 0.0 0.00 0.00 0.00 29 1013.8
20180820224442 84 49 0.0 0.0 0.00 0.00 0.00 29 1013.8
20180820223440 84 53 0.0 0.0 0.00 0.00 0.00 29 1014.0
20180820222429 84 7 0.0 0.0 0.00 0.00 0.00 31 1014.1
20180820221429 84 42 0.0 0.0 0.00 0.00 0.00 29 1014.1
20180820220447 84 9 0.0 0.0 0.00 0.00 0.00 30 1014.0
20180820215434 84 5 0.0 0.0 0.00 0.00 0.00 30 1014.1
20180820214429 84 20 0.0 0.0 0.00 0.00 0.00 29 1014.1
20180820213450 84 48 0.0 0.0 0.00 0.00 0.00 28 1014.1
20180820212442 83 31 0.0 0.0 0.00 0.00 0.00 29 1014.1
20180820211439 83 2 0.0 0.0 0.00 0.00 0.00 32 1014.2
20180820210439 84 353 0.0 0.0 0.00 0.00 0.00 31 1014.2
20180820205428 84 341 0.0 0.0 0.00 0.00 0.00 29 1014.2
20180820204427 84 330 0.0 0.0 0.00 0.00 0.00 27 1014.2
20180820203451 83 326 0.0 0.0 0.00 0.00 0.00 28 1014.3
20180820202439 83 280 0.0 0.0 0.00 0.00 0.00 27 1014.2
20180820201437 83 344 0.0 0.0 0.00 0.00 0.00 27 1014.3
20180820200439 83 317 0.0 0.0 0.00 0.00 0.00 27 1014.4
20180820195433 83 325 0.0 0.0 0.00 0.00 0.00 27 1014.4
20180820194431 82 324 0.0 0.0 0.00 0.00 0.00 27 1014.5
20180820193450 81 292 0.0 0.0 0.00 0.00 0.00 27 1014.6
20180820192438 81 281 0.0 0.0 0.00 0.00 0.00 28 1014.6
20180820191437 81 302 0.0 0.0 0.00 0.00 0.00 30 1014.7
20180820190443 80 332 0.0 0.0 0.00 0.00 0.00 30 1014.6
20180820185433 80 320 0.0 0.0 0.00 0.00 0.00 29 1014.7
20180820184430 80 317 0.0 0.0 0.00 0.00 0.00 28 1014.7
20180820183452 80 301 0.0 0.0 0.00 0.00 0.00 29 1014.7
20180820182424 79 350 0.0 0.0 0.00 0.00 0.00 27 1014.8
20180820181424 79 342 0.0 0.0 0.00 0.00 0.00 28 1014.9
20180820180447 79 336 0.0 0.0 0.00 0.00 0.00 27 1014.8
20180820175436 78 321 0.0 0.0 0.00 0.00 0.00 31 1014.7
20180820174435 77 296 0.0 0.0 0.00 0.00 0.00 30 1014.7
20180820173439 77 300 0.0 0.0 0.00 0.00 0.00 35 1014.7
20180820172430 76 279 0.0 0.0 0.00 0.00 0.00 34 1014.7
20180820171427 76 291 0.0 0.0 0.00 0.00 0.00 35 1014.7
20180820170446 75 302 0.0 0.0 0.00 0.00 0.00 39 1014.7
20180820165434 74 242 0.0 0.0 0.00 0.00 0.00 43 1014.7
20180820164437 73 264 0.0 0.0 0.00 0.00 0.00 44 1014.9
20180820163437 72 247 0.0 0.0 0.00 0.00 0.00 45 1014.9
20180820162426 72 238 0.0 0.0 0.00 0.00 0.00 43 1014.9
20180820161444 71 270 0.0 0.0 0.00 0.00 0.00 46 1015.0
20180820160449 69 303 0.0 0.0 0.00 0.00 0.00 46 1014.9
20180820155437 68 217 0.0 0.0 0.00 0.00 0.00 53 1014.8
20180820154435 68 217 0.0 0.0 0.00 0.00 0.00 51 1014.7
20180820153436 67 223 0.0 0.0 0.00 0.00 0.00 52 1014.7
20180820152425 67 223 0.0 0.0 0.00 0.00 0.00 50 1014.7
20180820151429 67 218 0.0 0.0 0.00 0.00 0.00 49 1014.6
20180820150448 67 233 0.0 0.0 0.00 0.00 0.00 46 1014.4
20180820145437 66 224 0.0 0.0 0.00 0.00 0.00 46 1014.4
20180820144435 65 249 0.0 0.0 0.00 0.00 0.00 49 1014.3
20180820143439 65 260 0.0 0.0 0.00 0.00 0.00 48 1014.2
20180820142428 64 241 0.0 0.0 0.00 0.00 0.00 49 1014.3
20180820141446 63 230 0.0 0.0 0.00 0.00 0.00 49 1014.2
20180820140442 64 228 0.0 0.0 0.00 0.00 0.00 49 1014.1
20180820135430 64 261 0.0 0.0 0.00 0.00 0.00 45 1014.1
20180820134432 64 241 0.0 0.0 0.00 0.00 0.00 46 1014.1
20180820133451 62 265 0.0 0.0 0.00 0.00 0.00 48 1014.0
20180820132440 63 230 0.0 0.0 0.00 0.00 0.00 48 1014.0
20180820131439 65 268 0.0 0.0 0.00 0.00 0.00 44 1013.8
20180820130441 64 258 0.0 0.0 0.00 0.00 0.00 44 1013.8
20180820125433 64 270 0.0 0.0 0.00 0.00 0.00 46 1013.7
20180820124429 63 260 0.0 0.0 0.00 0.00 0.00 51 1013.9
20180820123449 63 236 0.0 0.0 0.00 0.00 0.00 49 1014.0
20180820122438 63 238 0.0 0.0 0.00 0.00 0.00 50 1013.9
20180820121440 63 260 0.0 0.0 0.00 0.00 0.00 51 1014.0
20180820120441 64 269 0.0 0.0 0.00 0.00 0.00 48 1013.9
20180820115428 63 260 0.0 0.0 0.00 0.00 0.00 50 1013.9
20180820114427 64 250 0.0 0.0 0.00 0.00 0.00 48 1013.9
20180820113446 65 218 0.0 0.0 0.00 0.00 0.00 48 1013.9
20180820112438 62 244 0.0 0.0 0.00 0.00 0.00 55 1013.9
20180820111437 63 224 0.0 0.0 0.00 0.00 0.00 56 1013.6
20180820110434 63 247 0.0 0.0 0.00 0.00 0.00 57 1013.5
20180820105442 66 202 0.0 0.0 0.00 0.00 0.00 46 1013.3
20180820104439 67 202 0.0 0.0 0.00 0.00 0.00 45 1013.3
20180820103441 68 205 0.0 0.0 0.00 0.00 0.00 44 1013.0
20180820102429 67 201 0.0 0.0 0.00 0.00 0.00 45 1012.6
20180820101427 67 201 0.0 0.0 0.00 0.00 0.00 44 1012.7
20180820100445 67 202 0.0 0.0 0.00 0.00 0.00 44 1012.6
20180820095439 66 222 0.0 0.0 0.00 0.00 0.00 47 1012.9
20180820094435 65 212 0.0 0.0 0.00 0.00 0.00 56 1013.0
20180820093454 65 214 0.0 0.0 0.00 0.00 0.00 55 1013.2
20180820092440 68 0 0.0 0.0 0.00 0.00 0.00 50 1013.1
20180820091437 69 0 0.0 0.0 0.00 0.00 0.00 44 1013.0
20180820090440 69 0 0.0 0.0 0.00 0.00 0.00 45 1013.1
20180820085429 69 338 0.0 0.0 0.00 0.00 0.00 42 1013.3
20180820084428 69 241 0.0 0.0 0.00 0.00 0.00 44 1013.5
20180820083448 69 241 0.0 0.0 0.00 0.00 0.00 45 1013.7
20180820082437 70 216 0.0 0.0 0.00 0.00 0.00 45 1013.6